Terminal Aerodrome Forecast
Issued by NWS St Louis, MO

Home | Current Version | Previous Version | Text Only | Print | Product List | Glossary On
Versions: 1 2 3 4 5 6 7 8 9 10 11 12 13 14 15 16 17 18
554
FTUS43 KLSX 222330
TAFCOU
TAF
KCOU 222330Z 2300/2324 34011G20KT P6SM OVC008
     FM230500 32012KT P6SM SCT008 OVC010
     FM231800 32006KT P6SM BKN020
     FM232100 29005KT P6SM SCT150=

USA.gov is the U.S. government's official web portal to all federal, state and local government web resources and services.